(°C)
15°
15°
16°
17°
17°
17°
18°
(°C)
14°
14°
15°
15°
16°
16°
16°
جنوب
جنوب
جنوب
جنوب
SSW
SSW
SSW
(كم/سا)
4-8
4-8
4-8
4-9
6-11
8-16
10-19
(مم)
0
0
0
0
0
0
0
(%)
0
0
0
0
0
0
0

مستوى ارتفاع الشمس

/ -6.8°
sun-icon
UV 9
05:46
19:44
قمر المساء (226°)
00:00
09:01

متر لسان دييغو (KSAN)

الوقت الشروط درجة الحرارة/
نقطة الندى
رياح مجال رؤية حالة الطقس غيوم الضغط تغيير خام
MVFR 15°C / 12.2°C 200º 5kt >10km - Overcast 1100ft 1013 - KSAN 191151Z 20005KT 10SM OVC011 15/12 A2994 RMK AO2 SLP137 T01500122 10156 20144 56009 $
MVFR 15°C / 12.2°C 210º 4kt >10km - Overcast 1100ft 1014 - KSAN 191051Z 21004KT 9SM OVC011 15/12 A2995 RMK AO2 SLP141 T01500122 $
MVFR 15°C / 12.2°C variable 5kt >10km - Overcast 1200ft 1014 - KSAN 190951Z VRB05KT 9SM OVC012 15/12 A2995 RMK AO2 SLP141 T01500122 $
MVFR 15°C / 12.2°C variable 0kt >10km - Overcast 1200ft 1014 - KSAN 190851Z 00000KT 10SM OVC012 15/12 A2996 RMK AO2 SLP146 T01500122 58010 $
MVFR 15°C / 12.2°C 190º 5kt >10km - Overcast 1200ft 1015 - KSAN 190751Z 19005KT 10SM OVC012 15/12 A2998 RMK AO2 SLP150 T01500122 401830150 $
MVFR 15°C / 11.7°C 190º 5kt >10km - Broken Clouds 1300ft 1015 - KSAN 190651Z 19005KT 10SM BKN013 15/12 A2999 RMK AO2 SLP154 T01500117 $
MVFR 15°C / 11.7°C 180º 6kt >10km - Overcast 1300ft 1015 - KSAN 190551Z 18006KT 10SM OVC013 15/12 A2999 RMK AO2 SLP156 T01500117 10172 20150 50003 $
MVFR 16.7°C / 11.7°C 160º 5kt >10km - Overcast 1400ft 1015 - KSAN 190451Z 16005KT 10SM OVC014 17/12 A3000 RMK AO2 SLP159 T01670117
MVFR 15.6°C / 11.7°C variable 5kt >10km - Overcast 1400ft - KSAN 190419Z VRB05KT 10SM OVC014 16/12 A3000 RMK AO2 T01560117
MVFR 15.6°C / 11.7°C 180º 4kt >10km - Overcast 1500ft - KSAN 190403Z 18004KT 10SM OVC015 16/12 A3000 RMK AO2 T01560117
MVFR 15.6°C / 11.7°C 180º 7kt >10km - Broken Clouds 1400ft 1015 - KSAN 190351Z 18007KT 10SM BKN014 16/12 A3000 RMK AO2 SLP157 T01560117
MVFR 15.6°C / 11.7°C 190º 5kt >10km - Overcast 1400ft - KSAN 190339Z 19005KT 10SM OVC014 16/12 A3000 RMK AO2 T01560117
MVFR 15.6°C / 11.7°C 220º 6kt >10km - Overcast 1500ft 1015 - KSAN 190251Z 22006KT 10SM OVC015 16/12 A2999 RMK AO2 SLP154 T01560117 53002
MVFR 16.1°C / 11.7°C 230º 7kt >10km - Broken Clouds 1500ft 1015 - KSAN 190151Z 23007KT 10SM BKN015 16/12 A2998 RMK AO2 SLP151 T01610117
MVFR 17.2°C / 11.7°C 220º 8kt >10km - Broken Clouds 1600ft 1014 - KSAN 190051Z 22008KT 10SM BKN016 17/12 A2997 RMK AO2 SLP149 T01720117
MVFR 16.7°C / 11.7°C 200º 8kt >10km - Broken Clouds 2200ft 1015 - KSAN 182351Z 20008KT 10SM BKN022 17/12 A2998 RMK AO2 SLP152 BKN V SCT T01670117 10183 20167 58009
MVFR 17.2°C / 11.7°C 220º 8kt Gust 19kt >10km - Broken Clouds 2200ft 1015 - KSAN 182251Z 22008G19KT 10SM BKN022 17/12 A2999 RMK AO2 SLP155 BKN V SCT T01720117
MVFR 17.8°C / 11.7°C 210º 9kt >10km - Broken Clouds 2200ft 1015 - KSAN 182151Z 21009KT 10SM BKN022 18/12 A3000 RMK AO2 SLP159 T01780117
MVFR 17.8°C / 11.7°C 240º 8kt Gust 19kt >10km - Broken Clouds 2000ft 1016 - KSAN 182051Z 24008G19KT 10SM BKN020 18/12 A3001 RMK AO2 SLP161 T01780117 58006
MVFR 17.2°C / 11.7°C 240º 9kt Gust 17kt >10km - Broken Clouds 2000ft 1016 - KSAN 181951Z 24009G17KT 10SM BKN020 17/12 A3002 RMK AO2 SLP164 T01720117
MVFR 17.8°C / 12.2°C 230º 9kt >10km - Broken Clouds 1700ft - KSAN 181933Z 23009KT 10SM BKN017 18/12 A3002 RMK AO2 T01780122
VFR 17.8°C / 11.7°C 190º 8kt >10km - Scattered Clouds 2200ft 1016 - KSAN 181851Z 19008KT 10SM SCT022 18/12 A3003 RMK AO2 SLP167 T01780117
VFR 17.8°C / 11.7°C 210º variable 170º to 230º 8kt >10km - Scattered Clouds 2200ft - KSAN 181813Z 21008KT 170V230 10SM SCT022 18/12 A3003 RMK AO2 SCT V BKN T01780117
MVFR 17.8°C / 11.1°C 200º 6kt >10km - Broken Clouds 2200ft 1016 - KSAN 181751Z 20006KT 10SM BKN022 18/11 A3003 RMK AO2 SLP168 BKN V SCT T01780111 10178 20150 58000

MVFR

15°C / 12.2°C

[أكثر]
رياح 200º 5kt
مجال رؤية >10km
حالة الطقس -
غيوم Overcast 1100ft
الضغط 1013
تغيير -
خام KSAN 191151Z 20005KT 10SM OVC011 15/12 A2994 RMK AO2 SLP137 T01500122 10156 20144 56009 $

MVFR

15°C / 12.2°C

[أكثر]
رياح 210º 4kt
مجال رؤية >10km
حالة الطقس -
غيوم Overcast 1100ft
الضغط 1014
تغيير -
خام KSAN 191051Z 21004KT 9SM OVC011 15/12 A2995 RMK AO2 SLP141 T01500122 $

MVFR

15°C / 12.2°C

[أكثر]
رياح variable 5kt
مجال رؤية >10km
حالة الطقس -
غيوم Overcast 1200ft
الضغط 1014
تغيير -
خام KSAN 190951Z VRB05KT 9SM OVC012 15/12 A2995 RMK AO2 SLP141 T01500122 $

MVFR

15°C / 12.2°C

[أكثر]
رياح variable 0kt
مجال رؤية >10km
حالة الطقس -
غيوم Overcast 1200ft
الضغط 1014
تغيير -
خام KSAN 190851Z 00000KT 10SM OVC012 15/12 A2996 RMK AO2 SLP146 T01500122 58010 $

MVFR

15°C / 12.2°C

[أكثر]
رياح 190º 5kt
مجال رؤية >10km
حالة الطقس -
غيوم Overcast 1200ft
الضغط 1015
تغيير -
خام KSAN 190751Z 19005KT 10SM OVC012 15/12 A2998 RMK AO2 SLP150 T01500122 401830150 $

MVFR

15°C / 11.7°C

[أكثر]
رياح 190º 5kt
مجال رؤية >10km
حالة الطقس -
غيوم Broken Clouds 1300ft
الضغط 1015
تغيير -
خام KSAN 190651Z 19005KT 10SM BKN013 15/12 A2999 RMK AO2 SLP154 T01500117 $

MVFR

15°C / 11.7°C

[أكثر]
رياح 180º 6kt
مجال رؤية >10km
حالة الطقس -
غيوم Overcast 1300ft
الضغط 1015
تغيير -
خام KSAN 190551Z 18006KT 10SM OVC013 15/12 A2999 RMK AO2 SLP156 T01500117 10172 20150 50003 $

MVFR

16.7°C / 11.7°C

[أكثر]
رياح 160º 5kt
مجال رؤية >10km
حالة الطقس -
غيوم Overcast 1400ft
الضغط 1015
تغيير -
خام KSAN 190451Z 16005KT 10SM OVC014 17/12 A3000 RMK AO2 SLP159 T01670117

MVFR

15.6°C / 11.7°C

[أكثر]
رياح variable 5kt
مجال رؤية >10km
حالة الطقس -
غيوم Overcast 1400ft
الضغط
تغيير -
خام KSAN 190419Z VRB05KT 10SM OVC014 16/12 A3000 RMK AO2 T01560117

MVFR

15.6°C / 11.7°C

[أكثر]
رياح 180º 4kt
مجال رؤية >10km
حالة الطقس -
غيوم Overcast 1500ft
الضغط
تغيير -
خام KSAN 190403Z 18004KT 10SM OVC015 16/12 A3000 RMK AO2 T01560117

MVFR

15.6°C / 11.7°C

[أكثر]
رياح 180º 7kt
مجال رؤية >10km
حالة الطقس -
غيوم Broken Clouds 1400ft
الضغط 1015
تغيير -
خام KSAN 190351Z 18007KT 10SM BKN014 16/12 A3000 RMK AO2 SLP157 T01560117

MVFR

15.6°C / 11.7°C

[أكثر]
رياح 190º 5kt
مجال رؤية >10km
حالة الطقس -
غيوم Overcast 1400ft
الضغط
تغيير -
خام KSAN 190339Z 19005KT 10SM OVC014 16/12 A3000 RMK AO2 T01560117

MVFR

15.6°C / 11.7°C

[أكثر]
رياح 220º 6kt
مجال رؤية >10km
حالة الطقس -
غيوم Overcast 1500ft
الضغط 1015
تغيير -
خام KSAN 190251Z 22006KT 10SM OVC015 16/12 A2999 RMK AO2 SLP154 T01560117 53002

MVFR

16.1°C / 11.7°C

[أكثر]
رياح 230º 7kt
مجال رؤية >10km
حالة الطقس -
غيوم Broken Clouds 1500ft
الضغط 1015
تغيير -
خام KSAN 190151Z 23007KT 10SM BKN015 16/12 A2998 RMK AO2 SLP151 T01610117

MVFR

17.2°C / 11.7°C

[أكثر]
رياح 220º 8kt
مجال رؤية >10km
حالة الطقس -
غيوم Broken Clouds 1600ft
الضغط 1014
تغيير -
خام KSAN 190051Z 22008KT 10SM BKN016 17/12 A2997 RMK AO2 SLP149 T01720117

MVFR

16.7°C / 11.7°C

[أكثر]
رياح 200º 8kt
مجال رؤية >10km
حالة الطقس -
غيوم Broken Clouds 2200ft
الضغط 1015
تغيير -
خام KSAN 182351Z 20008KT 10SM BKN022 17/12 A2998 RMK AO2 SLP152 BKN V SCT T01670117 10183 20167 58009

MVFR

17.2°C / 11.7°C

[أكثر]
رياح 220º 8kt Gust 19kt
مجال رؤية >10km
حالة الطقس -
غيوم Broken Clouds 2200ft
الضغط 1015
تغيير -
خام KSAN 182251Z 22008G19KT 10SM BKN022 17/12 A2999 RMK AO2 SLP155 BKN V SCT T01720117

MVFR

17.8°C / 11.7°C

[أكثر]
رياح 210º 9kt
مجال رؤية >10km
حالة الطقس -
غيوم Broken Clouds 2200ft
الضغط 1015
تغيير -
خام KSAN 182151Z 21009KT 10SM BKN022 18/12 A3000 RMK AO2 SLP159 T01780117

MVFR

17.8°C / 11.7°C

[أكثر]
رياح 240º 8kt Gust 19kt
مجال رؤية >10km
حالة الطقس -
غيوم Broken Clouds 2000ft
الضغط 1016
تغيير -
خام KSAN 182051Z 24008G19KT 10SM BKN020 18/12 A3001 RMK AO2 SLP161 T01780117 58006

MVFR

17.2°C / 11.7°C

[أكثر]
رياح 240º 9kt Gust 17kt
مجال رؤية >10km
حالة الطقس -
غيوم Broken Clouds 2000ft
الضغط 1016
تغيير -
خام KSAN 181951Z 24009G17KT 10SM BKN020 17/12 A3002 RMK AO2 SLP164 T01720117

MVFR

17.8°C / 12.2°C

[أكثر]
رياح 230º 9kt
مجال رؤية >10km
حالة الطقس -
غيوم Broken Clouds 1700ft
الضغط
تغيير -
خام KSAN 181933Z 23009KT 10SM BKN017 18/12 A3002 RMK AO2 T01780122

VFR

17.8°C / 11.7°C

[أكثر]
رياح 190º 8kt
مجال رؤية >10km
حالة الطقس -
غيوم Scattered Clouds 2200ft
الضغط 1016
تغيير -
خام KSAN 181851Z 19008KT 10SM SCT022 18/12 A3003 RMK AO2 SLP167 T01780117

VFR

17.8°C / 11.7°C

[أكثر]
رياح 210º variable 170º to 230º 8kt
مجال رؤية >10km
حالة الطقس -
غيوم Scattered Clouds 2200ft
الضغط
تغيير -
خام KSAN 181813Z 21008KT 170V230 10SM SCT022 18/12 A3003 RMK AO2 SCT V BKN T01780117

MVFR

17.8°C / 11.1°C

[أكثر]
رياح 200º 6kt
مجال رؤية >10km
حالة الطقس -
غيوم Broken Clouds 2200ft
الضغط 1016
تغيير -
خام KSAN 181751Z 20006KT 10SM BKN022 18/11 A3003 RMK AO2 SLP168 BKN V SCT T01780111 10178 20150 58000

انقر لسان دييغو (KSAN)

From till


From till Wind 200º 5kt. Visibility 10km or more. Overcast 1200ft.
From till Wind 210º 9kt. Visibility 10km or more. Broken Clouds 1800ft.
Temporarly from till Scattered Clouds 1800ft.
From till Wind 190º 9kt. Visibility 10km or more. Broken Clouds 2200ft.
Temporarly from till Visibility 8000m. Light Drizzle Mist . Broken Clouds 1200ft.
Temporarly from till Visibility 8000m. Light Drizzle Mist . Broken Clouds 1200ft.
From till Wind 180º 10kt. Visibility 10km or more. Broken Clouds 1800ft.

خام: KSAN 191133Z 1912/2018 20005KT P6SM OVC012 FM191800 21009KT P6SM BKN018 TEMPO 1919/1923 SCT018 FM200300 19009KT P6SM BKN022 TEMPO 2008/2012 5SM -DZ BR BKN012 FM201200 18010KT P6SM BKN018 TEMPO 2012/2016 5SM -DZ BR BKN012

رادار وهطول الأمطار التنبؤ الآني لسان دييغو

رذاذ
ضوء
معتدل
ثقيل
ثقيل جدا
وابل

مؤشر المكان يشير الى سان دييغو. تظهر في هذه الرسوم المتحركة هطول الامطار بالرادار للساعة الماضية, و توقعات 1h. رذاذ أو تساقط ثلوج خفيف قد يكون غير مرئي للرادار. كثافة هطول الأمطار مرمزة بالألوان وتتراوح من الأزرق الفاتح إلى البرتقالي.

صور الأقمار الصناعية الملتقطة حالياً لسان دييغو, الولايات المتحدة الأمريكية

المؤشر يدل على موقع سان دييغو. [أكثر]

تجمع صورة الأقمار الصناعية في الوقت الفعلي بين الضوء المرئي أثناء النهار والأشعة تحت الحمراء أثناء الليل. لا تبدو الصورة مظلمة ليلاً، لأن الأشعة تحت الحمراء يمكنها الكشف عن الاختلافات في درجة الحرارة. لسوء الحظ ، يصعب التمييز بين السحب المنخفضة والضباب ودرجات حرارة الأرض ، وبالتالي يمكن أن تكون الصور غير مرئية تقريبًا أثناء الليل. يتم تحديث صور الأقمار الصناعية Meteosat الخاصة بأوروبا في الوقت الفعلي كل 5 دقائق، بينما يتم تحديث صور GOES-16 / GOES-17 (أمريكا الشمالية والجنوبية) و Himawari (آسيا) كل 10 دقائق.

العودة الى الأعلى